Time;durP1;ratioP1;P1;durP2;ratioP2;P2;SDS_P1;SDS_P2;PMS_P1;PMS_P2;Temp;Humidity;BMP_temperature;BMP_pressure;BME280_temperature;BME280_humidity;BME280_pressure;Samples;Min_cycle;Max_cycle;Signal;HPM_P1;HPM_P2
2023/02/17 00:01:57;;;;;;;;;;;17.30;61.90;;;;;;5073525;28;1287;-67
2023/02/17 00:04:22;;;;;;;;;;;17.20;62.70;;;;;;5042589;28;944;-67
2023/02/17 00:06:47;;;;;;;;;;;17.20;61.90;;;;;;5042613;28;1430;-67
2023/02/17 00:09:13;;;;;;;;;;;17.20;61.90;;;;;;5042418;28;983;-68
2023/02/17 00:11:38;;;;;;;;;;;17.20;61.90;;;;;;5073941;28;1260;-67
2023/02/17 00:14:04;;;;;;;;;;;17.20;62.00;;;;;;5038094;28;1891;-67
2023/02/17 00:16:29;;;;;;;;;;;17.20;62.00;;;;;;5039471;28;915;-67
2023/02/17 00:18:57;;;;;;;;;;;17.20;62.00;;;;;;5079436;28;800;-67
2023/02/17 00:21:23;;;;;;;;;;;17.20;62.00;;;;;;5073015;28;1271;-67
2023/02/17 00:23:48;;;;;;;;;;;17.20;62.00;;;;;;5040518;28;835;-67
2023/02/17 00:26:14;;;;;;;;;;;17.20;62.00;;;;;;5039530;28;1015;-67
2023/02/17 00:28:39;;;;;;;;;;;17.20;62.00;;;;;;5071640;28;906;-67
2023/02/17 00:31:06;;;;;;;;;;;17.20;62.10;;;;;;5071767;28;1275;-67
2023/02/17 00:33:31;;;;;;;;;;;17.20;62.00;;;;;;5074029;28;875;-67
2023/02/17 00:35:57;;;;;;;;;;;17.20;62.10;;;;;;5038587;28;1949;-67
2023/02/17 00:38:22;;;;;;;;;;;17.20;62.10;;;;;;5040036;28;995;-67
2023/02/17 00:40:47;;;;;;;;;;;17.20;62.10;;;;;;5043190;28;1687;-69
2023/02/17 00:43:13;;;;;;;;;;;17.20;62.10;;;;;;5040924;28;1257;-67
2023/02/17 00:45:38;;;;;;;;;;;17.20;62.10;;;;;;5041771;28;878;-67
2023/02/17 00:48:04;;;;;;;;;;;17.20;62.10;;;;;;5040112;28;946;-67
2023/02/17 00:50:29;;;;;;;;;;;17.20;62.10;;;;;;5046075;28;1275;-67
2023/02/17 00:52:55;;;;;;;;;;;17.20;62.10;;;;;;5039299;28;867;-68
2023/02/17 00:55:20;;;;;;;;;;;17.20;62.10;;;;;;5037242;28;1959;-67
2023/02/17 00:57:46;;;;;;;;;;;17.10;62.80;;;;;;5038527;28;1073;-67
2023/02/17 01:00:11;;;;;;;;;;;17.20;62.10;;;;;;5040199;28;1299;-67
2023/02/17 01:02:37;;;;;;;;;;;17.20;62.20;;;;;;5041320;28;946;-67
2023/02/17 01:05:02;;;;;;;;;;;17.20;62.20;;;;;;5039881;28;899;-67
2023/02/17 01:07:28;;;;;;;;;;;17.10;62.10;;;;;;5037404;28;908;-67
2023/02/17 01:09:53;;;;;;;;;;;17.20;62.20;;;;;;5036238;28;1390;-67
2023/02/17 01:12:19;;;;;;;;;;;17.10;62.10;;;;;;5038641;28;1038;-67
2023/02/17 01:14:44;;;;;;;;;;;17.20;62.20;;;;;;5039323;28;1914;-67
2023/02/17 01:17:10;;;;;;;;;;;17.10;62.10;;;;;;5037148;28;987;-67
2023/02/17 01:19:35;;;;;;;;;;;17.20;62.20;;;;;;5038118;28;867;-67
2023/02/17 01:22:01;;;;;;;;;;;17.20;62.20;;;;;;5042633;28;1182;-67
2023/02/17 01:24:26;;;;;;;;;;;17.10;62.10;;;;;;5069017;28;914;-67
2023/02/17 01:26:52;;;;;;;;;;;17.20;62.20;;;;;;5037818;28;1387;-67
2023/02/17 01:29:17;;;;;;;;;;;17.20;62.30;;;;;;5072083;28;984;-67
2023/02/17 01:31:42;;;;;;;;;;;17.20;62.30;;;;;;5040130;28;1219;-67
2023/02/17 01:34:08;;;;;;;;;;;17.20;62.30;;;;;;5041307;28;1899;-67
2023/02/17 01:36:34;;;;;;;;;;;17.20;62.30;;;;;;5073860;28;1385;-67
2023/02/17 01:38:59;;;;;;;;;;;17.10;62.20;;;;;;5040557;28;954;-67
2023/02/17 01:41:28;;;;;;;;;;;17.20;62.30;;;;;;5036882;28;1272;-67
2023/02/17 01:44:26;;;;;;;;;;;17.20;62.30;;;;;;5038541;28;800;-67
2023/02/17 01:46:52;;;;;;;;;;;17.10;62.30;;;;;;5030060;28;1342;-67
2023/02/17 01:49:34;;;;;;;;;;;17.10;62.20;;;;;;5038303;28;1224;-67
2023/02/17 01:52:05;;;;;;;;;;;17.10;62.30;;;;;;5039515;28;1381;-67
2023/02/17 01:54:41;;;;;;;;;;;17.10;62.30;;;;;;5069796;28;1905;-67
2023/02/17 01:57:06;;;;;;;;;;;17.10;62.30;;;;;;5069713;28;877;-67
2023/02/17 01:59:32;;;;;;;;;;;17.10;62.30;;;;;;5069011;28;872;-67
2023/02/17 02:01:57;;;;;;;;;;;17.10;62.30;;;;;;5070167;28;1281;-67
2023/02/17 02:04:24;;;;;;;;;;;17.10;62.30;;;;;;5053955;28;1203;-67
2023/02/17 02:06:49;;;;;;;;;;;17.10;62.30;;;;;;5071668;28;918;-67
2023/02/17 02:09:19;;;;;;;;;;;17.10;62.30;;;;;;5074285;28;875;-67
2023/02/17 02:11:46;;;;;;;;;;;17.10;62.30;;;;;;5041104;28;1380;-67
2023/02/17 02:14:12;;;;;;;;;;;17.10;62.30;;;;;;5042631;28;1972;-67
2023/02/17 02:16:48;;;;;;;;;;;17.10;62.30;;;;;;5035418;28;844;-67
2023/02/17 02:19:13;;;;;;;;;;;17.10;62.30;;;;;;5070747;28;808;-67
2023/02/17 02:21:45;;;;;;;;;;;17.10;62.30;;;;;;5037614;28;1372;-67
2023/02/17 02:24:25;;;;;;;;;;;17.10;62.30;;;;;;5035921;28;801;-67
2023/02/17 02:27:09;;;;;;;;;;;17.10;62.40;;;;;;5068555;28;926;-68
2023/02/17 02:29:53;;;;;;;;;;;17.10;62.40;;;;;;5038946;28;891;-68
2023/02/17 02:32:35;;;;;;;;;;;17.10;62.40;;;;;;5036316;28;1193;-67
2023/02/17 02:35:13;;;;;;;;;;;17.10;62.40;;;;;;5068556;28;1901;-68
2023/02/17 02:37:40;;;;;;;;;;;17.10;62.40;;;;;;5036273;28;1545;-68
2023/02/17 02:40:06;;;;;;;;;;;17.10;62.40;;;;;;5069772;28;1283;-68
2023/02/17 02:42:31;;;;;;;;;;;17.10;62.40;;;;;;5069991;28;899;-68
2023/02/17 02:44:57;;;;;;;;;;;17.10;62.40;;;;;;5066266;28;880;-68
2023/02/17 02:47:34;;;;;;;;;;;17.10;62.40;;;;;;5036565;28;845;-68
2023/02/17 02:50:00;;;;;;;;;;;17.10;62.40;;;;;;5037439;28;1365;-68
2023/02/17 02:52:27;;;;;;;;;;;17.10;62.40;;;;;;5036309;28;864;-68
2023/02/17 02:54:58;;;;;;;;;;;17.10;62.50;;;;;;5070839;28;1973;-68
2023/02/17 02:57:50;;;;;;;;;;;17.10;62.40;;;;;;5037215;28;870;-68
2023/02/17 03:00:27;;;;;;;;;;;17.10;62.40;;;;;;5027657;28;1216;-68
2023/02/17 03:03:03;;;;;;;;;;;17.00;62.40;;;;;;5040621;28;1140;-68
2023/02/17 03:05:38;;;;;;;;;;;17.10;62.50;;;;;;5068732;28;957;-68
2023/02/17 03:08:11;;;;;;;;;;;17.10;62.50;;;;;;5040994;28;1327;-68
2023/02/17 03:10:43;;;;;;;;;;;17.10;62.50;;;;;;5073573;28;1410;-68
2023/02/17 03:13:08;;;;;;;;;;;17.00;62.40;;;;;;5068364;28;1473;-68
2023/02/17 03:15:34;;;;;;;;;;;17.10;62.50;;;;;;5039161;28;1957;-68
2023/02/17 03:18:00;;;;;;;;;;;17.10;62.60;;;;;;5038674;28;1489;-68
2023/02/17 03:20:29;;;;;;;;;;;17.00;62.50;;;;;;5036084;28;1301;-69
2023/02/17 03:22:54;;;;;;;;;;;17.10;62.50;;;;;;5074029;28;1452;-69
2023/02/17 03:25:20;;;;;;;;;;;17.10;62.50;;;;;;5044030;28;1450;-69
2023/02/17 03:27:45;;;;;;;;;;;17.10;62.60;;;;;;5043538;28;1317;-69
2023/02/17 03:30:11;;;;;;;;;;;17.10;62.50;;;;;;5044466;28;1314;-69
2023/02/17 03:32:36;;;;;;;;;;;17.10;62.50;;;;;;5045307;28;1034;-70
2023/02/17 03:35:02;;;;;;;;;;;17.10;62.60;;;;;;5041617;28;1902;-70
2023/02/17 03:37:28;;;;;;;;;;;17.10;62.50;;;;;;5040657;28;1041;-67
2023/02/17 03:39:53;;;;;;;;;;;17.00;62.50;;;;;;5041698;28;1268;-67
2023/02/17 03:42:18;;;;;;;;;;;17.00;62.50;;;;;;5041553;28;864;-67
2023/02/17 03:44:44;;;;;;;;;;;17.10;63.30;;;;;;5040690;28;1519;-67
2023/02/17 03:47:09;;;;;;;;;;;17.10;62.60;;;;;;5041868;28;875;-66
2023/02/17 03:49:35;;;;;;;;;;;17.00;62.50;;;;;;5044335;28;879;-66
2023/02/17 03:52:00;;;;;;;;;;;17.00;62.50;;;;;;5042318;28;1279;-66
2023/02/17 03:54:26;;;;;;;;;;;17.10;62.60;;;;;;5040170;28;1954;-66
2023/02/17 03:56:51;;;;;;;;;;;17.00;62.50;;;;;;5071504;28;895;-66
2023/02/17 03:59:17;;;;;;;;;;;17.00;62.50;;;;;;5039361;28;1065;-67
2023/02/17 04:01:42;;;;;;;;;;;17.00;62.50;;;;;;5039079;28;1269;-67
2023/02/17 04:04:08;;;;;;;;;;;17.10;62.60;;;;;;5042437;28;1238;-67
2023/02/17 04:06:33;;;;;;;;;;;17.00;62.50;;;;;;5072632;28;914;-67
2023/02/17 04:08:59;;;;;;;;;;;17.00;62.50;;;;;;5043272;28;864;-67
2023/02/17 04:11:24;;;;;;;;;;;17.00;62.50;;;;;;5041365;28;1379;-67
2023/02/17 04:13:50;;;;;;;;;;;17.00;62.60;;;;;;5041333;28;875;-67
2023/02/17 04:16:15;;;;;;;;;;;17.00;62.60;;;;;;5040000;28;1922;-68
2023/02/17 04:18:41;;;;;;;;;;;17.00;62.60;;;;;;5075645;28;856;-69
2023/02/17 04:21:06;;;;;;;;;;;17.00;62.60;;;;;;5040269;28;1270;-69
2023/02/17 04:23:32;;;;;;;;;;;17.00;62.60;;;;;;5041548;28;2089;-66
2023/02/17 04:25:58;;;;;;;;;;;17.00;62.60;;;;;;5041510;28;1236;-68
2023/02/17 04:28:26;;;;;;;;;;;17.00;62.60;;;;;;5042524;28;1947;-67
2023/02/17 04:30:52;;;;;;;;;;;17.00;62.60;;;;;;5067687;28;4060;-67
2023/02/17 04:33:17;;;;;;;;;;;17.00;62.60;;;;;;5040802;28;1376;-68
2023/02/17 04:35:43;;;;;;;;;;;17.00;62.60;;;;;;5039541;28;1961;-69
2023/02/17 04:38:09;;;;;;;;;;;17.00;62.60;;;;;;5040673;28;1112;-68
2023/02/17 04:40:35;;;;;;;;;;;17.00;62.60;;;;;;5074114;28;1375;-68
2023/02/17 04:43:00;;;;;;;;;;;17.00;62.60;;;;;;5041628;28;935;-69
2023/02/17 04:45:26;;;;;;;;;;;17.00;62.60;;;;;;5041134;28;892;-70
2023/02/17 04:47:51;;;;;;;;;;;17.00;62.70;;;;;;5042693;28;1201;-68
2023/02/17 04:50:17;;;;;;;;;;;17.00;62.70;;;;;;5041749;28;1272;-69
2023/02/17 04:52:42;;;;;;;;;;;17.00;62.70;;;;;;5040151;28;804;-67
2023/02/17 04:55:08;;;;;;;;;;;17.00;62.70;;;;;;5039142;28;1958;-69
2023/02/17 04:57:33;;;;;;;;;;;17.00;62.70;;;;;;5072028;28;844;-69
2023/02/17 04:59:59;;;;;;;;;;;17.00;62.70;;;;;;5040090;28;1254;-67
2023/02/17 05:02:25;;;;;;;;;;;17.00;62.70;;;;;;5042303;28;1285;-69
2023/02/17 05:04:51;;;;;;;;;;;17.00;62.70;;;;;;5072221;28;918;-70
2023/02/17 05:07:17;;;;;;;;;;;17.00;62.70;;;;;;5045834;28;978;-68
2023/02/17 05:09:42;;;;;;;;;;;17.00;62.70;;;;;;5071394;28;1330;-69
2023/02/17 05:12:08;;;;;;;;;;;17.00;62.60;;;;;;5044272;28;831;-70
2023/02/17 05:14:33;;;;;;;;;;;17.10;62.60;;;;;;5042300;28;1906;-68
2023/02/17 05:16:59;;;;;;;;;;;17.10;62.50;;;;;;5040395;28;1139;-70
2023/02/17 05:19:24;;;;;;;;;;;17.10;62.40;;;;;;5076948;28;797;-69
2023/02/17 05:21:50;;;;;;;;;;;17.20;62.30;;;;;;5040923;28;1258;-70
2023/02/17 05:24:16;;;;;;;;;;;17.20;62.20;;;;;;5039492;28;832;-71
2023/02/17 05:26:41;;;;;;;;;;;17.20;62.10;;;;;;5045180;28;827;-72
2023/02/17 05:29:06;;;;;;;;;;;17.20;61.90;;;;;;5076302;28;898;-72
2023/02/17 05:31:32;;;;;;;;;;;17.20;61.80;;;;;;5049327;28;1244;-70
2023/02/17 05:33:57;;;;;;;;;;;17.30;61.70;;;;;;5043975;28;998;-71
2023/02/17 05:36:23;;;;;;;;;;;17.30;61.60;;;;;;5043194;28;1894;-70
2023/02/17 05:38:50;;;;;;;;;;;17.30;61.50;;;;;;5044973;28;1013;-70
2023/02/17 05:41:15;;;;;;;;;;;17.40;61.50;;;;;;5042615;28;1264;-69
2023/02/17 05:43:41;;;;;;;;;;;17.40;61.40;;;;;;5036536;28;851;-69
2023/02/17 05:46:06;;;;;;;;;;;17.40;61.30;;;;;;5039030;28;852;-70
2023/02/17 05:48:32;;;;;;;;;;;17.40;61.20;;;;;;5041750;28;892;-70
2023/02/17 05:50:57;;;;;;;;;;;17.50;61.20;;;;;;5037285;28;1357;-70
2023/02/17 05:53:23;;;;;;;;;;;17.50;61.10;;;;;;5070586;28;1077;-72
2023/02/17 05:55:48;;;;;;;;;;;17.50;61.10;;;;;;5038524;28;1902;-72
2023/02/17 05:58:13;;;;;;;;;;;17.50;61.00;;;;;;5040490;28;875;-72
2023/02/17 06:00:39;;;;;;;;;;;17.50;61.00;;;;;;5040194;28;1360;-73
2023/02/17 06:03:05;;;;;;;;;;;17.50;60.90;;;;;;5042588;28;871;-75
2023/02/17 06:05:30;;;;;;;;;;;17.50;60.90;;;;;;5042296;28;889;-74
2023/02/17 06:07:55;;;;;;;;;;;17.50;60.80;;;;;;5072608;28;1049;-71
2023/02/17 06:10:21;;;;;;;;;;;17.60;60.90;;;;;;5036510;28;1257;-73
2023/02/17 06:12:46;;;;;;;;;;;17.60;60.90;;;;;;5042360;28;880;-71
2023/02/17 06:15:12;;;;;;;;;;;17.60;60.80;;;;;;5039969;28;1943;-71
2023/02/17 06:17:37;;;;;;;;;;;17.60;60.80;;;;;;5034961;28;793;-71
2023/02/17 06:20:03;;;;;;;;;;;17.60;60.80;;;;;;5042246;28;1267;-71
2023/02/17 06:22:28;;;;;;;;;;;17.60;60.80;;;;;;5066774;28;807;-71
2023/02/17 06:24:54;;;;;;;;;;;17.60;60.80;;;;;;5040210;28;903;-70
2023/02/17 06:27:19;;;;;;;;;;;17.60;60.80;;;;;;5066500;28;1082;-70
2023/02/17 06:29:45;;;;;;;;;;;17.60;60.80;;;;;;5070035;28;1343;-70
2023/02/17 06:32:10;;;;;;;;;;;17.60;60.80;;;;;;5038588;28;943;-69
2023/02/17 06:34:36;;;;;;;;;;;17.60;60.80;;;;;;5042872;28;1953;-70
2023/02/17 06:37:01;;;;;;;;;;;17.60;60.80;;;;;;5037829;28;1449;-70
2023/02/17 06:39:27;;;;;;;;;;;17.60;60.80;;;;;;5036096;28;907;-70
2023/02/17 06:41:52;;;;;;;;;;;17.50;60.80;;;;;;5035049;28;1435;-69
2023/02/17 06:44:18;;;;;;;;;;;17.50;60.80;;;;;;5038799;28;896;-68
2023/02/17 06:46:45;;;;;;;;;;;17.50;60.80;;;;;;5037705;28;980;-67
2023/02/17 06:49:11;;;;;;;;;;;17.50;60.80;;;;;;5038474;28;898;-68
2023/02/17 06:51:37;;;;;;;;;;;17.50;60.80;;;;;;5067792;28;1375;-68
2023/02/17 06:54:02;;;;;;;;;;;17.50;60.80;;;;;;5071652;28;939;-69
2023/02/17 06:56:28;;;;;;;;;;;17.50;60.80;;;;;;5041319;28;1993;-68
2023/02/17 06:58:53;;;;;;;;;;;17.50;60.90;;;;;;5042453;28;857;-69
2023/02/17 07:01:24;;;;;;;;;;;17.50;60.90;;;;;;5040828;28;1373;-72
2023/02/17 07:03:50;;;;;;;;;;;17.50;60.90;;;;;;5075252;28;1571;-73
2023/02/17 07:06:16;;;;;;;;;;;17.50;60.90;;;;;;5071491;28;1112;-69
2023/02/17 07:08:41;;;;;;;;;;;17.50;60.90;;;;;;5044024;28;907;-68
2023/02/17 07:11:07;;;;;;;;;;;17.50;61.00;;;;;;5043258;28;1350;-70
2023/02/17 07:13:33;;;;;;;;;;;17.50;61.00;;;;;;5077708;28;1330;-69
2023/02/17 07:15:58;;;;;;;;;;;17.50;61.00;;;;;;5042505;28;1922;-69
2023/02/17 07:18:24;;;;;;;;;;;17.50;61.00;;;;;;5044703;28;970;-71
2023/02/17 07:20:49;;;;;;;;;;;17.40;61.00;;;;;;5041437;28;1263;-70
2023/02/17 07:23:15;;;;;;;;;;;17.50;61.00;;;;;;5041952;28;865;-71
2023/02/17 07:25:40;;;;;;;;;;;17.50;61.10;;;;;;5075583;28;925;-70
2023/02/17 07:28:06;;;;;;;;;;;17.50;61.10;;;;;;5042891;28;1305;-70
2023/02/17 07:30:31;;;;;;;;;;;17.50;61.10;;;;;;5067235;28;1514;-72
2023/02/17 07:32:57;;;;;;;;;;;17.50;61.20;;;;;;5050517;28;1361;-73
2023/02/17 07:35:22;;;;;;;;;;;17.50;61.10;;;;;;5043266;28;1906;-69
2023/02/17 07:37:47;;;;;;;;;;;17.50;61.10;;;;;;5074043;28;1364;-68
2023/02/17 07:40:13;;;;;;;;;;;17.50;61.20;;;;;;5041156;28;1252;-66
2023/02/17 07:42:38;;;;;;;;;;;17.40;61.20;;;;;;5044068;28;816;-66
2023/02/17 07:45:04;;;;;;;;;;;17.40;61.10;;;;;;5072068;28;1108;-70
2023/02/17 07:47:31;;;;;;;;;;;17.40;61.20;;;;;;5072985;28;843;-69
2023/02/17 07:49:56;;;;;;;;;;;17.40;61.20;;;;;;5039802;28;1291;-69
2023/02/17 07:52:21;;;;;;;;;;;17.40;61.20;;;;;;5043038;28;856;-69
2023/02/17 07:54:47;;;;;;;;;;;17.40;61.20;;;;;;5048991;28;1914;-68
2023/02/17 07:57:12;;;;;;;;;;;17.40;61.20;;;;;;5039548;28;800;-66
2023/02/17 07:59:38;;;;;;;;;;;17.40;62.00;;;;;;5045111;28;944;-69
2023/02/17 08:02:03;;;;;;;;;;;17.40;61.30;;;;;;5042773;28;1316;-70
2023/02/17 08:04:29;;;;;;;;;;;17.40;61.30;;;;;;5040612;28;875;-71
2023/02/17 08:06:54;;;;;;;;;;;17.40;61.30;;;;;;5040998;28;792;-71
2023/02/17 08:14:48;;;;;;;;;;;17.40;61.40;;;;;;5042024;28;1906;-71
2023/02/17 08:17:13;;;;;;;;;;;17.40;61.40;;;;;;5040693;28;1318;-71
2023/02/17 08:19:39;;;;;;;;;;;17.40;61.40;;;;;;5044731;28;1316;-71
2023/02/17 08:22:04;;;;;;;;;;;17.40;61.50;;;;;;5040321;28;1426;-71
2023/02/17 08:24:30;;;;;;;;;;;17.40;61.50;;;;;;5073088;28;1272;-71
2023/02/17 08:26:55;;;;;;;;;;;17.40;61.50;;;;;;5043165;28;859;-71
2023/02/17 08:29:21;;;;;;;;;;;17.30;61.50;;;;;;5041389;28;844;-72
2023/02/17 08:31:49;;;;;;;;;;;17.30;61.40;;;;;;5038753;28;1208;-72
2023/02/17 08:34:15;;;;;;;;;;;17.30;61.50;;;;;;5074606;28;1064;-72
2023/02/17 08:36:40;;;;;;;;;;;17.30;61.50;;;;;;5074509;28;1898;-72
2023/02/17 08:39:08;;;;;;;;;;;17.30;61.50;;;;;;5039928;28;971;-71
2023/02/17 08:41:35;;;;;;;;;;;17.30;61.50;;;;;;5041830;28;1240;-72
2023/02/17 08:44:01;;;;;;;;;;;17.30;61.50;;;;;;5071582;28;875;-72
2023/02/17 08:46:27;;;;;;;;;;;17.30;61.50;;;;;;5041410;28;868;-72
2023/02/17 08:48:52;;;;;;;;;;;17.40;61.60;;;;;;5043576;28;1089;-70
2023/02/17 08:51:22;;;;;;;;;;;17.30;61.60;;;;;;5041816;28;1240;-70
2023/02/17 08:53:54;;;;;;;;;;;17.30;61.80;;;;;;5071566;28;887;-73
2023/02/17 08:56:20;;;;;;;;;;;17.30;61.60;;;;;;5041292;28;1898;-73
2023/02/17 08:58:46;;;;;;;;;;;17.30;61.60;;;;;;5041066;28;935;-73
2023/02/17 09:01:12;;;;;;;;;;;17.30;61.50;;;;;;5041063;28;1231;-73
2023/02/17 09:03:37;;;;;;;;;;;17.30;61.50;;;;;;5042367;28;1315;-73
2023/02/17 09:06:03;;;;;;;;;;;17.30;61.50;;;;;;5072460;28;1244;-73
2023/02/17 09:08:28;;;;;;;;;;;17.40;61.50;;;;;;5068874;28;1018;-73
2023/02/17 09:10:54;;;;;;;;;;;17.40;61.50;;;;;;5070333;28;1312;-72
2023/02/17 09:13:19;;;;;;;;;;;17.40;61.40;;;;;;5041484;28;812;-72
2023/02/17 09:15:45;;;;;;;;;;;17.40;61.30;;;;;;5041681;28;1969;-71
2023/02/17 09:18:10;;;;;;;;;;;17.50;61.40;;;;;;5040884;28;892;-72
2023/02/17 09:20:36;;;;;;;;;;;17.50;61.20;;;;;;5040227;28;1309;-71
2023/02/17 09:23:02;;;;;;;;;;;17.50;61.20;;;;;;5044233;28;945;-71
2023/02/17 09:25:27;;;;;;;;;;;17.50;61.20;;;;;;5040175;28;932;-69
2023/02/17 09:27:53;;;;;;;;;;;17.50;61.10;;;;;;5070614;28;849;-69
2023/02/17 09:30:18;;;;;;;;;;;17.50;61.00;;;;;;5042266;28;1633;-70
2023/02/17 09:32:44;;;;;;;;;;;17.50;61.00;;;;;;5041449;28;943;-69
2023/02/17 09:35:13;;;;;;;;;;;17.50;60.90;;;;;;5040892;28;1988;-69
2023/02/17 09:37:38;;;;;;;;;;;17.50;60.90;;;;;;5039065;28;1376;-69
2023/02/17 09:40:04;;;;;;;;;;;17.60;60.90;;;;;;5037324;28;1184;-71
2023/02/17 09:42:30;;;;;;;;;;;17.60;61.60;;;;;;5041614;28;745;-73
2023/02/17 09:45:03;;;;;;;;;;;17.60;60.80;;;;;;5073122;28;872;-73
2023/02/17 09:47:58;;;;;;;;;;;17.60;60.80;;;;;;5077007;28;1006;-73
2023/02/17 09:50:25;;;;;;;;;;;17.60;60.80;;;;;;5039606;28;1490;-69
2023/02/17 09:52:55;;;;;;;;;;;17.60;60.70;;;;;;5073736;28;1001;-70
2023/02/17 09:55:24;;;;;;;;;;;17.60;60.70;;;;;;5070417;28;1906;-71
2023/02/17 09:58:04;;;;;;;;;;;17.60;60.70;;;;;;5073892;28;816;-72
2023/02/17 10:00:34;;;;;;;;;;;17.60;60.70;;;;;;5074639;28;1243;-70
2023/02/17 10:03:03;;;;;;;;;;;17.60;60.80;;;;;;5069726;28;1594;-71
2023/02/17 10:05:34;;;;;;;;;;;17.60;60.80;;;;;;5039425;28;954;-72
2023/02/17 10:08:21;;;;;;;;;;;17.60;60.80;;;;;;5073053;28;880;-72
2023/02/17 10:10:51;;;;;;;;;;;17.60;60.80;;;;;;5069780;28;1319;-72
2023/02/17 10:13:16;;;;;;;;;;;17.60;60.90;;;;;;5037656;28;963;-72
2023/02/17 10:15:43;;;;;;;;;;;17.60;60.80;;;;;;5038435;28;1965;-72
2023/02/17 10:18:14;;;;;;;;;;;17.60;60.90;;;;;;5071040;28;899;-72
2023/02/17 10:20:41;;;;;;;;;;;17.60;60.90;;;;;;5072882;28;1215;-72
2023/02/17 10:23:12;;;;;;;;;;;17.60;60.90;;;;;;5069438;28;1038;-72
2023/02/17 10:25:40;;;;;;;;;;;17.60;60.90;;;;;;5070152;28;1085;-71
2023/02/17 10:28:10;;;;;;;;;;;17.60;60.90;;;;;;5035794;28;1221;-73
2023/02/17 10:30:47;;;;;;;;;;;17.50;61.00;;;;;;5070592;28;1347;-71
2023/02/17 10:33:15;;;;;;;;;;;17.60;61.00;;;;;;5040111;28;968;-70
2023/02/17 10:35:51;;;;;;;;;;;17.60;60.90;;;;;;5071087;28;1898;-71
2023/02/17 10:38:18;;;;;;;;;;;17.60;60.90;;;;;;5039296;28;1353;-71
2023/02/17 10:40:44;;;;;;;;;;;17.60;60.90;;;;;;5069103;28;1202;-72
2023/02/17 10:43:09;;;;;;;;;;;17.60;60.90;;;;;;5066830;28;1093;-70
2023/02/17 10:45:39;;;;;;;;;;;17.60;60.90;;;;;;5037010;28;961;-71
2023/02/17 10:48:08;;;;;;;;;;;17.60;60.90;;;;;;5038326;28;908;-72
2023/02/17 10:50:33;;;;;;;;;;;17.60;60.90;;;;;;5068220;28;1862;-69
2023/02/17 10:52:59;;;;;;;;;;;17.60;60.90;;;;;;5071839;28;1947;-72
2023/02/17 10:55:28;;;;;;;;;;;17.60;60.90;;;;;;5057648;28;1902;-70
2023/02/17 10:57:59;;;;;;;;;;;17.60;60.80;;;;;;5072621;28;1905;-69
2023/02/17 11:00:25;;;;;;;;;;;17.60;60.80;;;;;;5037117;28;1419;-69
2023/02/17 11:02:51;;;;;;;;;;;17.60;60.90;;;;;;5038994;28;1568;-73
2023/02/17 11:05:30;;;;;;;;;;;17.60;60.90;;;;;;5069226;28;994;-74
2023/02/17 11:07:56;;;;;;;;;;;17.60;60.80;;;;;;5069919;28;890;-69
2023/02/17 11:10:32;;;;;;;;;;;17.60;60.90;;;;;;5066729;28;1292;-72
2023/02/17 11:12:58;;;;;;;;;;;17.60;60.90;;;;;;5059074;28;1346;-72
2023/02/17 11:15:28;;;;;;;;;;;17.60;60.90;;;;;;5069224;28;1910;-70
2023/02/17 11:17:54;;;;;;;;;;;17.60;60.90;;;;;;5038782;28;852;-70
2023/02/17 11:20:20;;;;;;;;;;;17.60;60.90;;;;;;5034975;28;1331;-70
2023/02/17 11:22:46;;;;;;;;;;;17.60;60.90;;;;;;5067209;28;1516;-71
2023/02/17 11:25:17;;;;;;;;;;;17.60;60.90;;;;;;5044240;28;1286;-71
2023/02/17 11:27:48;;;;;;;;;;;17.60;60.90;;;;;;5038050;28;832;-70
2023/02/17 11:30:14;;;;;;;;;;;17.60;60.90;;;;;;5071442;28;1424;-70
2023/02/17 11:32:39;;;;;;;;;;;17.60;60.90;;;;;;5070592;28;845;-70
2023/02/17 11:35:16;;;;;;;;;;;17.60;60.90;;;;;;5069910;28;1953;-70
2023/02/17 11:37:42;;;;;;;;;;;17.60;60.90;;;;;;5060027;28;1393;-71
2023/02/17 11:40:15;;;;;;;;;;;17.60;60.90;;;;;;5070518;28;1310;-70
2023/02/17 11:42:41;;;;;;;;;;;17.60;60.90;;;;;;5075429;28;1399;-74
2023/02/17 11:45:16;;;;;;;;;;;17.60;60.90;;;;;;5044643;28;812;-71
2023/02/17 11:47:45;;;;;;;;;;;17.60;61.00;;;;;;5071566;28;919;-72
2023/02/17 11:50:27;;;;;;;;;;;17.60;61.00;;;;;;5073090;28;1463;-72
2023/02/17 11:53:02;;;;;;;;;;;17.60;61.00;;;;;;5073159;28;1420;-73
2023/02/17 11:55:35;;;;;;;;;;;17.50;60.90;;;;;;5042107;28;1960;-73
2023/02/17 11:58:15;;;;;;;;;;;17.50;61.00;;;;;;5073968;28;1148;-74
2023/02/17 12:00:43;;;;;;;;;;;17.50;61.00;;;;;;5041304;28;1580;-72
2023/02/17 12:03:20;;;;;;;;;;;17.50;61.00;;;;;;5041498;28;933;-71
2023/02/17 12:06:05;;;;;;;;;;;17.50;61.10;;;;;;5072922;28;926;-71
2023/02/17 12:08:42;;;;;;;;;;;17.50;61.10;;;;;;5071023;28;1517;-70
2023/02/17 12:11:14;;;;;;;;;;;17.50;61.10;;;;;;5066518;28;2132;-69
2023/02/17 12:13:50;;;;;;;;;;;17.50;61.10;;;;;;5039420;28;759;-71
2023/02/17 12:16:31;;;;;;;;;;;17.50;61.10;;;;;;5075340;28;1918;-71
2023/02/17 12:19:11;;;;;;;;;;;17.50;61.20;;;;;;5044716;28;1256;-71
2023/02/17 12:21:37;;;;;;;;;;;17.50;61.20;;;;;;5040831;28;1350;-74
2023/02/17 12:24:02;;;;;;;;;;;17.50;61.20;;;;;;5041028;28;1326;-74
2023/02/17 12:26:32;;;;;;;;;;;17.50;61.20;;;;;;5038958;28;927;-73
2023/02/17 12:29:05;;;;;;;;;;;17.50;62.00;;;;;;5039095;28;1357;-72
2023/02/17 12:31:36;;;;;;;;;;;17.50;61.20;;;;;;5069934;28;1344;-73
2023/02/17 12:34:20;;;;;;;;;;;17.50;61.20;;;;;;5038380;28;939;-73
2023/02/17 12:36:45;;;;;;;;;;;17.50;61.20;;;;;;5039739;28;1902;-71
2023/02/17 12:39:15;;;;;;;;;;;17.50;61.20;;;;;;5071471;28;844;-71
2023/02/17 12:41:50;;;;;;;;;;;17.50;62.00;;;;;;5071172;28;1287;-73
2023/02/17 12:44:20;;;;;;;;;;;17.50;61.20;;;;;;5074319;28;847;-73
2023/02/17 12:46:46;;;;;;;;;;;17.50;61.20;;;;;;5073733;28;959;-72
2023/02/17 12:49:19;;;;;;;;;;;17.50;61.20;;;;;;5074017;28;851;-72
2023/02/17 12:51:47;;;;;;;;;;;17.50;61.20;;;;;;5060862;28;1314;-71
2023/02/17 12:54:22;;;;;;;;;;;17.50;61.30;;;;;;5069308;28;867;-69
2023/02/17 12:56:56;;;;;;;;;;;17.50;61.30;;;;;;5074068;28;1898;-69
2023/02/17 12:59:42;;;;;;;;;;;17.50;61.20;;;;;;5072748;28;823;-70
2023/02/17 13:02:21;;;;;;;;;;;17.50;61.20;;;;;;5041290;28;1279;-71
2023/02/17 13:04:48;;;;;;;;;;;17.50;61.20;;;;;;5073213;28;1354;-70
2023/02/17 13:07:31;;;;;;;;;;;17.50;61.30;;;;;;5071220;28;921;-72
2023/02/17 13:09:57;;;;;;;;;;;17.50;61.40;;;;;;5071592;28;1367;-72
2023/02/17 13:12:22;;;;;;;;;;;17.50;61.30;;;;;;5038179;28;871;-71
2023/02/17 13:14:48;;;;;;;;;;;17.50;61.30;;;;;;5040290;28;2019;-68
2023/02/17 13:17:25;;;;;;;;;;;17.50;61.30;;;;;;5039357;28;812;-69
2023/02/17 13:20:04;;;;;;;;;;;17.50;61.30;;;;;;5039620;28;1326;-68
2023/02/17 13:22:30;;;;;;;;;;;17.50;61.30;;;;;;5039195;28;1088;-70
2023/02/17 13:24:56;;;;;;;;;;;17.50;61.40;;;;;;5057613;28;1151;-71
2023/02/17 13:27:32;;;;;;;;;;;17.50;61.40;;;;;;5039090;28;812;-70
2023/02/17 13:30:01;;;;;;;;;;;17.50;61.40;;;;;;5068336;28;1402;-70
2023/02/17 13:32:29;;;;;;;;;;;17.50;61.40;;;;;;5040120;28;976;-70
2023/02/17 13:34:58;;;;;;;;;;;17.50;61.40;;;;;;5040439;28;1973;-71
2023/02/17 13:37:30;;;;;;;;;;;17.50;61.40;;;;;;5073112;28;938;-72
2023/02/17 13:39:55;;;;;;;;;;;17.50;61.40;;;;;;5039619;28;1321;-72
2023/02/17 13:42:40;;;;;;;;;;;17.50;61.50;;;;;;5072687;28;895;-71
2023/02/17 13:45:12;;;;;;;;;;;17.50;61.50;;;;;;5056160;28;1292;-71
2023/02/17 13:47:37;;;;;;;;;;;17.40;61.40;;;;;;5040377;28;844;-71
2023/02/17 13:50:03;;;;;;;;;;;17.40;61.40;;;;;;5070428;28;1261;-71
2023/02/17 13:52:29;;;;;;;;;;;17.40;61.50;;;;;;5070529;28;848;-71
2023/02/17 13:54:55;;;;;;;;;;;17.40;61.50;;;;;;5070538;28;1906;-71
2023/02/17 13:57:21;;;;;;;;;;;17.40;61.50;;;;;;5070682;28;924;-71
2023/02/17 13:59:47;;;;;;;;;;;17.40;61.50;;;;;;5070114;28;1277;-71
2023/02/17 14:02:19;;;;;;;;;;;17.40;61.50;;;;;;5039679;28;947;-71
2023/02/17 14:04:44;;;;;;;;;;;17.40;61.50;;;;;;5069306;28;843;-70
2023/02/17 14:07:10;;;;;;;;;;;17.40;61.50;;;;;;5035900;28;931;-70
2023/02/17 14:09:35;;;;;;;;;;;17.40;61.50;;;;;;5071002;28;906;-70
2023/02/17 14:12:03;;;;;;;;;;;17.40;61.50;;;;;;5071975;28;1294;-70
2023/02/17 14:14:29;;;;;;;;;;;17.50;61.50;;;;;;5071296;28;1053;-70
2023/02/17 14:16:56;;;;;;;;;;;17.50;61.40;;;;;;5040881;28;1910;-70
2023/02/17 14:19:21;;;;;;;;;;;17.50;61.40;;;;;;5036915;28;923;-70
2023/02/17 14:21:57;;;;;;;;;;;17.50;61.30;;;;;;5039684;28;1312;-70
2023/02/17 14:24:41;;;;;;;;;;;17.50;61.30;;;;;;5037836;28;798;-70
2023/02/17 14:27:07;;;;;;;;;;;17.50;61.20;;;;;;5037570;28;1422;-71
2023/02/17 14:29:46;;;;;;;;;;;17.50;61.10;;;;;;5069869;28;1269;-70
2023/02/17 14:32:30;;;;;;;;;;;17.50;61.10;;;;;;5071955;28;905;-70
2023/02/17 14:35:10;;;;;;;;;;;17.60;61.80;;;;;;5038388;28;1953;-70
2023/02/17 14:37:36;;;;;;;;;;;17.60;61.00;;;;;;5037066;28;995;-70
2023/02/17 14:40:02;;;;;;;;;;;17.60;60.90;;;;;;5039070;28;1353;-70
2023/02/17 14:42:28;;;;;;;;;;;17.60;60.90;;;;;;5069094;28;887;-71
2023/02/17 14:44:53;;;;;;;;;;;17.60;60.90;;;;;;5041923;28;1401;-71
2023/02/17 14:47:19;;;;;;;;;;;17.60;60.90;;;;;;5038164;28;802;-71